Time,TemperatureF,DewpointF,PressureIn,WindDirection,WindDirectionDegrees,WindSpeedMPH,WindSpeedGustMPH,Humidity,HourlyPrecipIn,Conditions,Clouds,dailyrainin,SoftwareType,DateUTC
2013-04-21 00:00:00,25.7,22.4,30.49,North,6,0.0,0.0,87,0.00,,---,0.00,VWS V14.01,2013-04-21 05:00:00,
2013-04-21 00:01:00,25.9,22.6,30.49,North,6,0.0,0.0,87,0.00,,---,0.00,VWS V14.01,2013-04-21 05:01:00,
2013-04-21 00:06:00,26.1,22.8,30.49,North,6,0.0,0.0,87,0.00,,---,0.00,VWS V14.01,2013-04-21 05:06:00,
2013-04-21 00:11:00,25.9,22.6,30.49,North,6,0.0,0.0,87,0.00,,---,0.00,VWS V14.01,2013-04-21 05:11:00,
2013-04-21 00:16:00,25.8,22.5,30.49,North,6,0.0,0.0,87,0.00,,---,0.00,VWS V14.01,2013-04-21 05:16:00,
2013-04-21 00:21:00,25.7,22.6,30.49,North,6,0.0,0.0,88,0.00,,---,0.00,VWS V14.01,2013-04-21 05:21:00,
2013-04-21 00:26:00,25.3,22.2,30.50,North,6,0.0,0.0,88,0.00,,---,0.00,VWS V14.01,2013-04-21 05:26:00,
2013-04-21 00:30:00,25.1,21.8,30.50,North,6,0.0,0.0,87,0.00,,---,0.00,VWS V14.01,2013-04-21 05:30:00,
2013-04-21 00:31:00,24.9,21.9,30.50,North,6,0.0,0.0,88,0.00,,---,0.00,VWS V14.01,2013-04-21 05:31:00,
2013-04-21 00:36:00,24.5,21.5,30.50,North,6,0.0,0.0,88,0.00,,---,0.00,VWS V14.01,2013-04-21 05:36:00,
2013-04-21 00:41:00,24.7,22.2,30.50,North,6,0.0,0.0,90,0.00,,---,0.00,VWS V14.01,2013-04-21 05:41:00,
2013-04-21 00:46:00,24.6,21.8,30.50,North,6,0.0,0.0,89,0.00,,---,0.00,VWS V14.01,2013-04-21 05:46:00,
2013-04-21 00:51:00,24.2,21.4,30.50,North,6,0.0,0.0,89,0.00,,---,0.00,VWS V14.01,2013-04-21 05:51:00,
2013-04-21 00:56:00,23.8,21.0,30.50,North,6,0.0,0.0,89,0.00,,---,0.00,VWS V14.01,2013-04-21 05:56:00,
2013-04-21 01:00:00,23.6,20.8,30.50,North,6,0.0,0.0,89,0.00,,---,0.00,VWS V14.01,2013-04-21 06:00:00,
2013-04-21 01:01:00,23.5,21.0,30.51,North,6,0.0,0.0,90,0.00,,---,0.00,VWS V14.01,2013-04-21 06:01:00,
2013-04-21 01:06:00,23.3,20.8,30.51,North,6,0.0,0.0,90,0.00,,---,0.00,VWS V14.01,2013-04-21 06:06:00,
2013-04-21 01:11:00,23.6,21.6,30.51,North,6,0.0,0.0,92,0.00,,---,0.00,VWS V14.01,2013-04-21 06:11:00,
2013-04-21 01:16:00,23.8,21.8,30.51,North,6,0.0,0.0,92,0.00,,---,0.00,VWS V14.01,2013-04-21 06:16:00,
2013-04-21 01:21:00,23.5,21.3,30.51,North,6,0.0,0.0,91,0.00,,---,0.00,VWS V14.01,2013-04-21 06:21:00,
2013-04-21 01:26:00,24.0,22.3,30.51,North,6,0.0,0.0,93,0.00,,---,0.00,VWS V14.01,2013-04-21 06:26:00,
2013-04-21 01:30:00,24.1,22.4,30.51,North,6,0.0,0.0,93,0.00,,---,0.00,VWS V14.01,2013-04-21 06:30:00,
2013-04-21 01:31:00,24.3,22.6,30.51,North,6,0.0,0.0,93,0.00,,---,0.00,VWS V14.01,2013-04-21 06:31:00,
2013-04-21 01:36:00,24.4,22.4,30.51,North,6,0.0,0.0,92,0.00,,---,0.00,VWS V14.01,2013-04-21 06:36:00,
2013-04-21 01:41:00,24.4,22.7,30.51,North,6,0.0,0.0,93,0.00,,---,0.00,VWS V14.01,2013-04-21 06:41:00,
2013-04-21 01:46:00,24.5,22.8,30.51,North,6,0.0,0.0,93,0.00,,---,0.00,VWS V14.01,2013-04-21 06:46:00,
2013-04-21 01:51:00,24.6,22.9,30.51,North,6,0.0,0.0,93,0.00,,---,0.00,VWS V14.01,2013-04-21 06:51:00,
2013-04-21 01:56:00,24.8,23.1,30.51,North,6,0.0,0.0,93,0.00,,---,0.00,VWS V14.01,2013-04-21 06:56:00,
2013-04-21 02:00:00,24.8,23.1,30.51,North,6,0.0,0.0,93,0.00,,---,0.00,VWS V14.01,2013-04-21 07:00:00,
2013-04-21 02:01:00,24.7,23.0,30.52,North,6,0.0,0.0,93,0.00,,---,0.00,VWS V14.01,2013-04-21 07:01:00,
2013-04-21 02:06:00,24.4,22.4,30.52,North,6,0.0,0.0,92,0.00,,---,0.00,VWS V14.01,2013-04-21 07:06:00,
2013-04-21 02:11:00,24.0,22.0,30.52,North,6,0.0,0.0,92,0.00,,---,0.00,VWS V14.01,2013-04-21 07:11:00,
2013-04-21 02:16:00,23.7,21.7,30.52,North,6,0.0,0.0,92,0.00,,---,0.00,VWS V14.01,2013-04-21 07:16:00,
2013-04-21 02:21:00,23.4,21.7,30.52,North,6,0.0,0.0,93,0.00,,---,0.00,VWS V14.01,2013-04-21 07:21:00,
2013-04-21 02:26:00,23.3,21.6,30.52,North,6,0.0,0.0,93,0.00,,---,0.00,VWS V14.01,2013-04-21 07:26:00,
2013-04-21 02:30:00,23.3,21.6,30.52,North,6,0.0,0.0,93,0.00,,---,0.00,VWS V14.01,2013-04-21 07:30:00,
2013-04-21 02:31:00,23.2,21.5,30.52,North,6,0.0,0.0,93,0.00,,---,0.00,VWS V14.01,2013-04-21 07:31:00,
2013-04-21 02:36:00,23.4,21.9,30.53,North,6,0.0,0.0,94,0.00,,---,0.00,VWS V14.01,2013-04-21 07:36:00,
2013-04-21 02:41:00,23.3,21.6,30.53,North,6,0.0,0.0,93,0.00,,---,0.00,VWS V14.01,2013-04-21 07:41:00,
2013-04-21 02:46:00,23.0,21.3,30.53,North,6,0.0,0.0,93,0.00,,---,0.00,VWS V14.01,2013-04-21 07:46:00,
2013-04-21 02:51:00,23.1,21.6,30.53,North,6,0.0,0.0,94,0.00,,---,0.00,VWS V14.01,2013-04-21 07:51:00,
2013-04-21 02:56:00,23.2,21.7,30.53,North,6,0.0,0.0,94,0.00,,---,0.00,VWS V14.01,2013-04-21 07:56:00,
2013-04-21 03:00:00,23.2,21.7,30.53,North,6,0.0,0.0,94,0.00,,---,0.00,VWS V14.01,2013-04-21 08:00:00,
2013-04-21 03:01:00,23.2,21.5,30.53,North,6,0.0,0.0,93,0.00,,---,0.00,VWS V14.01,2013-04-21 08:01:00,
2013-04-21 03:06:00,23.2,21.7,30.53,North,6,0.0,0.0,94,0.00,,---,0.00,VWS V14.01,2013-04-21 08:06:00,
2013-04-21 03:11:00,23.3,21.8,30.54,North,6,0.0,0.0,94,0.00,,---,0.00,VWS V14.01,2013-04-21 08:11:00,
2013-04-21 03:16:00,23.3,21.8,30.54,North,6,0.0,0.0,94,0.00,,---,0.00,VWS V14.01,2013-04-21 08:16:00,
2013-04-21 03:21:00,23.2,21.7,30.54,North,6,0.0,0.0,94,0.00,,---,0.00,VWS V14.01,2013-04-21 08:21:00,
2013-04-21 03:26:00,23.2,21.7,30.54,North,6,0.0,0.0,94,0.00,,---,0.00,VWS V14.01,2013-04-21 08:26:00,
2013-04-21 03:30:00,23.2,21.7,30.54,North,6,0.0,0.0,94,0.00,,---,0.00,VWS V14.01,2013-04-21 08:30:00,
2013-04-21 03:31:00,23.2,21.7,30.54,North,6,0.0,0.0,94,0.00,,---,0.00,VWS V14.01,2013-04-21 08:31:00,
2013-04-21 03:36:00,23.3,21.8,30.54,North,6,0.0,0.0,94,0.00,,---,0.00,VWS V14.01,2013-04-21 08:36:00,
2013-04-21 03:41:00,23.5,22.0,30.54,North,6,0.0,0.0,94,0.00,,---,0.00,VWS V14.01,2013-04-21 08:41:00,
2013-04-21 03:46:00,23.6,22.1,30.55,North,6,0.0,0.0,94,0.00,,---,0.00,VWS V14.01,2013-04-21 08:46:00,
2013-04-21 03:51:00,23.6,22.1,30.55,North,6,0.0,0.0,94,0.00,,---,0.00,VWS V14.01,2013-04-21 08:51:00,
2013-04-21 03:56:00,23.6,22.1,30.55,North,6,0.0,0.0,94,0.00,,---,0.00,VWS V14.01,2013-04-21 08:56:00,
2013-04-21 04:00:00,23.7,22.2,30.55,North,6,0.0,0.0,94,0.00,,---,0.00,VWS V14.01,2013-04-21 09:00:00,
2013-04-21 04:01:00,23.8,22.6,30.55,North,6,0.0,0.0,95,0.00,,---,0.00,VWS V14.01,2013-04-21 09:01:00,
2013-04-21 04:06:00,23.9,22.7,30.55,North,6,0.0,0.0,95,0.00,,---,0.00,VWS V14.01,2013-04-21 09:06:00,
2013-04-21 04:11:00,23.9,22.7,30.55,North,6,0.0,0.0,95,0.00,,---,0.00,VWS V14.01,2013-04-21 09:11:00,
2013-04-21 04:16:00,23.8,22.3,30.55,North,6,0.0,0.0,94,0.00,,---,0.00,VWS V14.01,2013-04-21 09:16:00,
2013-04-21 04:21:00,23.8,22.3,30.55,North,6,0.0,0.0,94,0.00,,---,0.00,VWS V14.01,2013-04-21 09:21:00,
2013-04-21 04:26:00,24.0,22.8,30.55,North,6,0.0,0.0,95,0.00,,---,0.00,VWS V14.01,2013-04-21 09:26:00,
2013-04-21 04:30:00,24.0,22.8,30.55,North,6,0.0,0.0,95,0.00,,---,0.00,VWS V14.01,2013-04-21 09:30:00,
2013-04-21 04:31:00,24.0,22.8,30.55,North,6,0.0,0.0,95,0.00,,---,0.00,VWS V14.01,2013-04-21 09:31:00,
2013-04-21 04:36:00,23.9,22.7,30.56,North,6,0.0,0.0,95,0.00,,---,0.00,VWS V14.01,2013-04-21 09:36:00,
2013-04-21 04:41:00,23.8,22.6,30.56,North,6,0.0,0.0,95,0.00,,---,0.00,VWS V14.01,2013-04-21 09:41:00,
2013-04-21 04:46:00,23.9,22.7,30.56,North,6,0.0,0.0,95,0.00,,---,0.00,VWS V14.01,2013-04-21 09:46:00,
2013-04-21 04:51:00,23.7,22.5,30.56,North,6,0.0,0.0,95,0.00,,---,0.00,VWS V14.01,2013-04-21 09:51:00,
2013-04-21 04:56:00,23.9,22.7,30.56,North,6,0.0,0.0,95,0.00,,---,0.00,VWS V14.01,2013-04-21 09:56:00,
2013-04-21 05:00:00,23.8,22.6,30.56,North,6,0.0,0.0,95,0.00,,---,0.00,VWS V14.01,2013-04-21 10:00:00,
2013-04-21 05:01:00,23.7,22.5,30.56,North,6,0.0,0.0,95,0.00,,---,0.00,VWS V14.01,2013-04-21 10:01:00,
2013-04-21 05:06:00,23.6,22.4,30.56,North,6,0.0,0.0,95,0.00,,---,0.00,VWS V14.01,2013-04-21 10:06:00,
2013-04-21 05:11:00,23.4,22.2,30.57,North,6,0.0,0.0,95,0.00,,---,0.00,VWS V14.01,2013-04-21 10:11:00,
2013-04-21 05:16:00,23.5,22.3,30.57,North,6,0.0,0.0,95,0.00,,---,0.00,VWS V14.01,2013-04-21 10:16:00,
2013-04-21 05:21:00,23.4,22.2,30.57,North,6,0.0,0.0,95,0.00,,---,0.00,VWS V14.01,2013-04-21 10:21:00,
2013-04-21 05:26:00,23.4,22.2,30.57,North,6,0.0,0.0,95,0.00,,---,0.00,VWS V14.01,2013-04-21 10:26:00,
2013-04-21 05:30:00,23.3,22.1,30.57,North,6,0.0,0.0,95,0.00,,---,0.00,VWS V14.01,2013-04-21 10:30:00,
2013-04-21 05:31:00,23.1,21.9,30.57,North,6,0.0,0.0,95,0.00,,---,0.00,VWS V14.01,2013-04-21 10:31:00,
2013-04-21 05:36:00,22.8,21.6,30.58,North,6,0.0,0.0,95,0.00,,---,0.00,VWS V14.01,2013-04-21 10:36:00,
2013-04-21 05:41:00,22.5,21.3,30.58,North,6,0.0,0.0,95,0.00,,---,0.00,VWS V14.01,2013-04-21 10:41:00,
2013-04-21 05:46:00,22.1,20.6,30.58,North,6,0.0,0.0,94,0.00,,---,0.00,VWS V14.01,2013-04-21 10:46:00,
2013-04-21 05:51:00,21.9,20.7,30.59,North,6,0.0,0.0,95,0.00,,---,0.00,VWS V14.01,2013-04-21 10:51:00,
2013-04-21 05:56:00,21.8,20.6,30.59,North,6,0.0,0.0,95,0.00,,---,0.00,VWS V14.01,2013-04-21 10:56:00,
2013-04-21 06:00:00,21.7,20.5,30.59,North,6,0.0,0.0,95,0.00,,---,0.00,VWS V14.01,2013-04-21 11:00:00,
2013-04-21 06:01:00,21.6,20.4,30.59,North,6,0.0,0.0,95,0.00,,---,0.00,VWS V14.01,2013-04-21 11:01:00,
2013-04-21 06:06:00,21.7,20.7,30.59,North,6,0.0,0.0,96,0.00,,---,0.00,VWS V14.01,2013-04-21 11:06:00,
2013-04-21 06:11:00,22.0,21.0,30.59,North,6,0.0,0.0,96,0.00,,---,0.00,VWS V14.01,2013-04-21 11:11:00,
2013-04-21 06:16:00,22.4,21.4,30.59,North,6,0.0,0.0,96,0.00,,---,0.00,VWS V14.01,2013-04-21 11:16:00,
2013-04-21 06:21:00,22.8,21.8,30.60,North,6,0.0,0.0,96,0.00,,---,0.00,VWS V14.01,2013-04-21 11:21:00,
2013-04-21 06:26:00,23.0,22.0,30.60,North,6,0.0,0.0,96,0.00,,---,0.00,VWS V14.01,2013-04-21 11:26:00,
2013-04-21 06:30:00,23.1,22.1,30.60,North,6,0.0,0.0,96,0.00,,---,0.00,VWS V14.01,2013-04-21 11:30:00,
2013-04-21 06:31:00,23.4,22.4,30.60,North,6,0.0,0.0,96,0.00,,---,0.00,VWS V14.01,2013-04-21 11:31:00,
2013-04-21 06:36:00,24.1,23.1,30.61,NNE,29,0.0,1.0,96,0.00,,---,0.00,VWS V14.01,2013-04-21 11:36:00,
2013-04-21 06:41:00,24.9,23.9,30.61,NNE,29,0.0,1.0,96,0.00,,---,0.00,VWS V14.01,2013-04-21 11:41:00,
2013-04-21 06:46:00,25.6,24.6,30.61,NNE,29,0.0,1.0,96,0.00,,---,0.00,VWS V14.01,2013-04-21 11:46:00,
2013-04-21 06:51:00,26.6,25.6,30.61,NE,46,0.0,1.0,96,0.00,,---,0.00,VWS V14.01,2013-04-21 11:51:00,
2013-04-21 06:56:00,27.5,26.5,30.62,NE,46,0.0,1.0,96,0.00,,---,0.00,VWS V14.01,2013-04-21 11:56:00,
2013-04-21 07:00:00,28.1,27.1,30.62,NE,46,0.0,1.0,96,0.00,,---,0.00,VWS V14.01,2013-04-21 12:00:00,
2013-04-21 07:01:00,28.7,27.5,30.62,NE,46,0.0,0.0,95,0.00,,---,0.00,VWS V14.01,2013-04-21 12:01:00,
2013-04-21 07:06:00,29.5,28.0,30.62,NE,46,0.0,0.0,94,0.00,,---,0.00,VWS V14.01,2013-04-21 12:06:00,
2013-04-21 07:11:00,30.4,28.4,30.63,NE,37,0.0,1.0,92,0.00,,---,0.00,VWS V14.01,2013-04-21 12:11:00,
2013-04-21 07:16:00,31.7,28.3,30.63,NE,37,0.0,1.0,87,0.00,,---,0.00,VWS V14.01,2013-04-21 12:16:00,
2013-04-21 07:21:00,32.8,27.9,30.63,NE,37,0.0,1.0,82,0.00,,---,0.00,VWS V14.01,2013-04-21 12:21:00,
2013-04-21 07:26:00,33.9,27.8,30.63,NE,37,0.0,1.0,78,0.00,,---,0.00,VWS V14.01,2013-04-21 12:26:00,
2013-04-21 07:30:00,34.4,28.0,30.63,NE,37,0.0,1.0,77,0.00,,---,0.00,VWS V14.01,2013-04-21 12:30:00,
2013-04-21 07:31:00,35.0,28.5,30.63,NE,37,0.0,0.0,77,0.00,,---,0.00,VWS V14.01,2013-04-21 12:31:00,
2013-04-21 07:36:00,35.6,27.8,30.63,ESE,118,1.0,2.0,73,0.00,,---,0.00,VWS V14.01,2013-04-21 12:36:00,
2013-04-21 07:41:00,36.2,28.1,30.63,ESE,110,1.0,2.0,72,0.00,,---,0.00,VWS V14.01,2013-04-21 12:41:00,
2013-04-21 07:46:00,36.7,27.9,30.63,ESE,105,3.0,3.0,70,0.00,,---,0.00,VWS V14.01,2013-04-21 12:46:00,
2013-04-21 07:51:00,37.3,27.7,30.63,SE,141,5.0,6.0,68,0.00,,---,0.00,VWS V14.01,2013-04-21 12:51:00,
2013-04-21 07:56:00,37.6,28.0,30.63,ENE,71,2.0,6.0,68,0.00,,---,0.00,VWS V14.01,2013-04-21 12:56:00,
2013-04-21 08:00:00,37.6,28.0,30.63,East,101,2.0,6.0,68,0.00,,---,0.00,VWS V14.01,2013-04-21 13:00:00,
2013-04-21 08:01:00,37.8,28.2,30.63,East,96,2.0,5.0,68,0.00,,---,0.00,VWS V14.01,2013-04-21 13:01:00,
2013-04-21 08:06:00,38.1,28.5,30.63,ENE,73,1.0,5.0,68,0.00,,---,0.00,VWS V14.01,2013-04-21 13:06:00,
2013-04-21 08:11:00,38.2,28.2,30.63,SE,127,1.0,5.0,67,0.00,,---,0.00,VWS V14.01,2013-04-21 13:11:00,
2013-04-21 08:16:00,38.5,28.5,30.63,SSW,195,2.0,7.0,67,0.00,,---,0.00,VWS V14.01,2013-04-21 13:16:00,
2013-04-21 08:21:00,38.9,28.5,30.63,NE,42,4.0,7.0,66,0.00,,---,0.00,VWS V14.01,2013-04-21 13:21:00,
2013-04-21 08:26:00,38.9,28.1,30.64,SE,129,1.0,7.0,65,0.00,,---,0.00,VWS V14.01,2013-04-21 13:26:00,
2013-04-21 08:30:00,38.8,28.1,30.64,SE,146,4.0,8.0,65,0.00,,---,0.00,VWS V14.01,2013-04-21 13:30:00,
2013-04-21 08:31:00,38.9,28.5,30.64,East,81,5.0,5.0,66,0.00,,---,0.00,VWS V14.01,2013-04-21 13:31:00,
2013-04-21 08:36:00,38.8,28.4,30.64,NNE,16,3.0,7.0,66,0.00,,---,0.00,VWS V14.01,2013-04-21 13:36:00,
2013-04-21 08:41:00,39.0,28.6,30.64,ESE,120,1.0,10.0,66,0.00,,---,0.00,VWS V14.01,2013-04-21 13:41:00,
2013-04-21 08:46:00,39.5,28.4,30.64,South,190,1.0,10.0,64,0.00,,---,0.00,VWS V14.01,2013-04-21 13:46:00,
2013-04-21 08:51:00,39.3,28.5,30.64,ENE,77,4.0,10.0,65,0.00,,---,0.00,VWS V14.01,2013-04-21 13:51:00,
2013-04-21 08:56:00,39.3,27.8,30.64,ESE,117,5.0,10.0,63,0.00,,---,0.00,VWS V14.01,2013-04-21 13:56:00,
2013-04-21 09:00:00,39.3,27.8,30.64,South,172,3.0,10.0,63,0.00,,---,0.00,VWS V14.01,2013-04-21 14:00:00,
2013-04-21 09:01:00,39.5,28.4,30.64,SE,139,2.0,8.0,64,0.00,,---,0.00,VWS V14.01,2013-04-21 14:01:00,
2013-04-21 09:06:00,40.0,28.0,30.64,ENE,63,2.0,9.0,62,0.00,,---,0.00,VWS V14.01,2013-04-21 14:06:00,
2013-04-21 09:11:00,40.4,28.0,30.64,ESE,120,3.0,9.0,61,0.00,,---,0.00,VWS V14.01,2013-04-21 14:11:00,
2013-04-21 09:16:00,40.7,28.3,30.64,SE,124,5.0,9.0,61,0.00,,---,0.00,VWS V14.01,2013-04-21 14:16:00,
2013-04-21 09:21:00,41.2,28.0,30.64,ESE,108,3.0,9.0,59,0.00,,---,0.00,VWS V14.01,2013-04-21 14:21:00,
2013-04-21 09:26:00,41.3,28.5,30.64,ESE,117,3.0,9.0,60,0.00,,---,0.00,VWS V14.01,2013-04-21 14:26:00,
2013-04-21 09:30:00,41.3,28.1,30.64,ESE,117,3.0,9.0,59,0.00,,---,0.00,VWS V14.01,2013-04-21 14:30:00,
2013-04-21 09:31:00,41.4,28.2,30.64,ESE,117,3.0,4.0,59,0.00,,---,0.00,VWS V14.01,2013-04-21 14:31:00,
2013-04-21 09:36:00,41.8,27.3,30.64,SE,130,4.0,9.0,56,0.00,,---,0.00,VWS V14.01,2013-04-21 14:36:00,
2013-04-21 09:41:00,41.6,26.2,30.64,NNW,343,1.0,10.0,54,0.00,,---,0.00,VWS V14.01,2013-04-21 14:41:00,
2013-04-21 09:46:00,41.7,27.2,30.64,East,89,5.0,10.0,56,0.00,,---,0.00,VWS V14.01,2013-04-21 14:46:00,
2013-04-21 09:51:00,42.2,27.2,30.64,SSE,148,3.0,10.0,55,0.00,,---,0.00,VWS V14.01,2013-04-21 14:51:00,
2013-04-21 09:56:00,42.3,27.7,30.64,East,86,5.0,10.0,56,0.00,,---,0.00,VWS V14.01,2013-04-21 14:56:00,
2013-04-21 10:00:00,42.3,27.7,30.64,East,97,3.0,10.0,56,0.00,,---,0.00,VWS V14.01,2013-04-21 15:00:00,
2013-04-21 10:01:00,42.7,28.5,30.64,SE,128,2.0,5.0,57,0.00,,---,0.00,VWS V14.01,2013-04-21 15:01:00,
2013-04-21 10:06:00,43.0,28.0,30.64,NE,46,2.0,8.0,55,0.00,,---,0.00,VWS V14.01,2013-04-21 15:06:00,
2013-04-21 10:11:00,43.2,28.6,30.64,ESE,120,6.0,8.0,56,0.00,,---,0.00,VWS V14.01,2013-04-21 15:11:00,
2013-04-21 10:16:00,43.5,28.4,30.64,ENE,66,5.0,8.0,55,0.00,,---,0.00,VWS V14.01,2013-04-21 15:16:00,
2013-04-21 10:21:00,43.2,28.1,30.64,ENE,71,3.0,9.0,55,0.00,,---,0.00,VWS V14.01,2013-04-21 15:21:00,
2013-04-21 10:26:00,42.7,28.5,30.64,North,4,3.0,9.0,57,0.00,,---,0.00,VWS V14.01,2013-04-21 15:26:00,
2013-04-21 10:30:00,43.1,28.5,30.64,ESE,115,5.0,9.0,56,0.00,,---,0.00,VWS V14.01,2013-04-21 15:30:00,
2013-04-21 10:49:00,44.0,28.9,30.64,SSE,152,5.0,5.0,55,0.00,,---,0.00,VWS V14.01,2013-04-21 15:49:00,
2013-04-21 10:54:00,44.3,28.7,30.64,SE,133,3.0,10.0,54,0.00,,---,0.00,VWS V14.01,2013-04-21 15:54:00,
2013-04-21 10:59:00,44.3,28.7,30.64,NNE,16,1.0,8.0,54,0.00,,---,0.00,VWS V14.01,2013-04-21 15:59:00,
2013-04-21 11:00:00,44.3,28.7,30.64,SE,127,8.0,10.0,54,0.00,,---,0.00,VWS V14.01,2013-04-21 16:00:00,
2013-04-21 11:04:00,44.8,29.2,30.63,SSE,167,3.0,8.0,54,0.00,,---,0.00,VWS V14.01,2013-04-21 16:04:00,
2013-04-21 11:09:00,44.8,29.2,30.64,ENE,78,3.0,11.0,54,0.00,,---,0.00,VWS V14.01,2013-04-21 16:09:00,
2013-04-21 11:14:00,44.7,28.6,30.63,NE,51,8.0,11.0,53,0.00,,---,0.00,VWS V14.01,2013-04-21 16:14:00,
2013-04-21 11:19:00,44.8,29.6,30.63,NE,56,3.0,11.0,55,0.00,,---,0.00,VWS V14.01,2013-04-21 16:19:00,
2013-04-21 11:24:00,45.2,30.0,30.63,ENE,75,6.0,11.0,55,0.00,,---,0.00,VWS V14.01,2013-04-21 16:24:00,
2013-04-21 11:29:00,45.9,29.3,30.62,East,99,3.0,6.0,52,0.00,,---,0.00,VWS V14.01,2013-04-21 16:29:00,
2013-04-21 11:30:00,45.9,30.2,30.63,SW,217,2.0,11.0,54,0.00,,---,0.00,VWS V14.01,2013-04-21 16:30:00,
2013-04-21 11:34:00,45.4,28.8,30.62,ESE,112,4.0,10.0,52,0.00,,---,0.00,VWS V14.01,2013-04-21 16:34:00,
2013-04-21 11:39:00,45.5,29.4,30.62,SE,141,1.0,11.0,53,0.00,,---,0.00,VWS V14.01,2013-04-21 16:39:00,
2013-04-21 11:44:00,46.1,29.5,30.62,SE,129,2.0,11.0,52,0.00,,---,0.00,VWS V14.01,2013-04-21 16:44:00,
2013-04-21 11:49:00,45.5,29.4,30.62,SSE,154,5.0,11.0,53,0.00,,---,0.00,VWS V14.01,2013-04-21 16:49:00,
2013-04-21 11:54:00,45.4,29.7,30.62,ESE,111,4.0,11.0,54,0.00,,---,0.00,VWS V14.01,2013-04-21 16:54:00,
2013-04-21 11:59:00,46.5,31.2,30.62,ENE,71,3.0,5.0,55,0.00,,---,0.00,VWS V14.01,2013-04-21 16:59:00,
2013-04-21 12:00:00,46.2,30.9,30.62,East,98,2.0,11.0,55,0.00,,---,0.00,VWS V14.01,2013-04-21 17:00:00,
2013-04-21 12:04:00,46.9,31.1,30.61,ENE,57,4.0,7.0,54,0.00,,---,0.00,VWS V14.01,2013-04-21 17:04:00,
2013-04-21 12:09:00,47.2,31.0,30.61,SSW,204,1.0,7.0,53,0.00,,---,0.00,VWS V14.01,2013-04-21 17:09:00,
2013-04-21 12:14:00,47.5,30.3,30.61,East,99,3.0,12.0,51,0.00,,---,0.00,VWS V14.01,2013-04-21 17:14:00,
2013-04-21 12:19:00,47.3,30.6,30.61,SE,131,3.0,12.0,52,0.00,,---,0.00,VWS V14.01,2013-04-21 17:19:00,
2013-04-21 12:24:00,47.6,31.8,30.61,ESE,121,5.0,14.0,54,0.00,,---,0.00,VWS V14.01,2013-04-21 17:24:00,
2013-04-21 12:29:00,47.8,31.0,30.60,ESE,114,3.0,8.0,52,0.00,,---,0.00,VWS V14.01,2013-04-21 17:29:00,
2013-04-21 12:30:00,47.7,31.9,30.60,ESE,108,4.0,14.0,54,0.00,,---,0.00,VWS V14.01,2013-04-21 17:30:00,
2013-04-21 12:34:00,47.1,31.8,30.60,East,86,8.0,8.0,55,0.00,,---,0.00,VWS V14.01,2013-04-21 17:34:00,
2013-04-21 12:39:00,47.5,31.2,30.60,ESE,106,4.0,8.0,53,0.00,,---,0.00,VWS V14.01,2013-04-21 17:39:00,
2013-04-21 12:44:00,48.1,33.6,30.60,ESE,114,3.0,8.0,57,0.00,,---,0.00,VWS V14.01,2013-04-21 17:44:00,
2013-04-21 12:49:00,47.7,31.0,30.60,ESE,103,6.0,12.0,52,0.00,,---,0.00,VWS V14.01,2013-04-21 17:49:00,
2013-04-21 12:54:00,47.5,31.2,30.59,SE,144,3.0,12.0,53,0.00,,---,0.00,VWS V14.01,2013-04-21 17:54:00,
2013-04-21 12:59:00,47.2,30.5,30.59,South,172,0.0,6.0,52,0.00,,---,0.00,VWS V14.01,2013-04-21 17:59:00,
2013-04-21 13:00:00,47.3,30.6,30.59,ESE,112,6.0,12.0,52,0.00,,---,0.00,VWS V14.01,2013-04-21 18:00:00,
2013-04-21 13:04:00,47.7,31.4,30.59,East,99,4.0,6.0,53,0.00,,---,0.00,VWS V14.01,2013-04-21 18:04:00,
2013-04-21 13:09:00,47.4,31.6,30.59,ENE,74,3.0,8.0,54,0.00,,---,0.00,VWS V14.01,2013-04-21 18:09:00,
2013-04-21 13:14:00,47.3,31.0,30.59,East,92,4.0,8.0,53,0.00,,---,0.00,VWS V14.01,2013-04-21 18:14:00,
2013-04-21 13:19:00,47.3,31.0,30.59,East,99,9.0,9.0,53,0.00,,---,0.00,VWS V14.01,2013-04-21 18:19:00,
2013-04-21 13:24:00,47.1,32.2,30.58,East,91,6.0,10.0,56,0.00,,---,0.00,VWS V14.01,2013-04-21 18:24:00,
2013-04-21 13:29:00,47.5,32.2,30.58,ENE,63,11.0,11.0,55,0.00,,---,0.00,VWS V14.01,2013-04-21 18:29:00,
2013-04-21 13:30:00,47.4,32.1,30.58,ESE,105,4.0,12.0,55,0.00,,---,0.00,VWS V14.01,2013-04-21 18:30:00,
2013-04-21 13:34:00,47.2,32.3,30.58,ENE,67,4.0,14.0,56,0.00,,---,0.00,VWS V14.01,2013-04-21 18:34:00,
2013-04-21 13:39:00,46.9,32.9,30.58,SE,139,3.0,14.0,58,0.00,,---,0.00,VWS V14.01,2013-04-21 18:39:00,
2013-04-21 13:44:00,47.1,32.7,30.57,ENE,67,3.0,14.0,57,0.00,,---,0.00,VWS V14.01,2013-04-21 18:44:00,
2013-04-21 13:49:00,47.4,32.5,30.58,ENE,74,9.0,14.0,56,0.00,,---,0.00,VWS V14.01,2013-04-21 18:49:00,
2013-04-21 13:54:00,47.3,32.4,30.58,ENE,72,2.0,14.0,56,0.00,,---,0.00,VWS V14.01,2013-04-21 18:54:00,
2013-04-21 13:59:00,47.3,32.8,30.57,East,94,6.0,8.0,57,0.00,,---,0.00,VWS V14.01,2013-04-21 18:59:00,
2013-04-21 14:00:00,47.2,32.8,30.57,SE,127,2.0,14.0,57,0.00,,---,0.00,VWS V14.01,2013-04-21 19:00:00,
2013-04-21 14:04:00,46.6,32.2,30.57,ENE,67,3.0,10.0,57,0.00,,---,0.00,VWS V14.01,2013-04-21 19:04:00,
2013-04-21 14:09:00,46.4,32.0,30.57,NE,40,6.0,10.0,57,0.00,,---,0.00,VWS V14.01,2013-04-21 19:09:00,
2013-04-21 14:14:00,46.3,32.3,30.57,NE,37,4.0,10.0,58,0.00,,---,0.00,VWS V14.01,2013-04-21 19:14:00,
2013-04-21 14:19:00,46.6,32.2,30.56,East,90,5.0,11.0,57,0.00,,---,0.00,VWS V14.01,2013-04-21 19:19:00,
2013-04-21 14:24:00,46.8,32.0,30.56,ENE,77,3.0,11.0,56,0.00,,---,0.00,VWS V14.01,2013-04-21 19:24:00,
2013-04-21 14:29:00,47.0,32.1,30.56,SW,231,2.0,4.0,56,0.00,,---,0.00,VWS V14.01,2013-04-21 19:29:00,
2013-04-21 14:30:00,46.9,32.5,30.56,ENE,70,2.0,11.0,57,0.00,,---,0.00,VWS V14.01,2013-04-21 19:30:00,
2013-04-21 14:34:00,46.5,31.2,30.56,ENE,63,5.0,11.0,55,0.00,,---,0.00,VWS V14.01,2013-04-21 19:34:00,
2013-04-21 14:39:00,46.4,32.0,30.56,SE,141,2.0,11.0,57,0.00,,---,0.00,VWS V14.01,2013-04-21 19:39:00,
2013-04-21 14:44:00,46.3,31.9,30.56,NE,46,2.0,11.0,57,0.00,,---,0.00,VWS V14.01,2013-04-21 19:44:00,
2013-04-21 14:49:00,46.3,32.8,30.55,SSW,201,2.0,11.0,59,0.00,,---,0.00,VWS V14.01,2013-04-21 19:49:00,
2013-04-21 14:54:00,45.7,30.9,30.55,East,86,6.0,11.0,56,0.00,,---,0.00,VWS V14.01,2013-04-21 19:54:00,
2013-04-21 14:59:00,45.8,31.9,30.55,ENE,72,5.0,5.0,58,0.00,,---,0.00,VWS V14.01,2013-04-21 19:59:00,
2013-04-21 15:00:00,45.7,31.8,30.55,SSE,150,4.0,11.0,58,0.00,,---,0.00,VWS V14.01,2013-04-21 20:00:00,
2013-04-21 15:04:00,46.1,31.3,30.54,North,5,8.0,10.0,56,0.00,,---,0.00,VWS V14.01,2013-04-21 20:04:00,
2013-04-21 15:09:00,45.7,31.4,30.54,ESE,105,1.0,12.0,57,0.00,,---,0.00,VWS V14.01,2013-04-21 20:09:00,
2013-04-21 15:14:00,45.8,31.5,30.54,ENE,75,4.0,12.0,57,0.00,,---,0.00,VWS V14.01,2013-04-21 20:14:00,
2013-04-21 15:19:00,45.6,31.3,30.54,NE,37,3.0,12.0,57,0.00,,---,0.00,VWS V14.01,2013-04-21 20:19:00,
2013-04-21 15:24:00,46.0,31.6,30.54,NE,50,5.0,12.0,57,0.00,,---,0.00,VWS V14.01,2013-04-21 20:24:00,
2013-04-21 15:29:00,45.3,30.5,30.54,NE,55,6.0,8.0,56,0.00,,---,0.00,VWS V14.01,2013-04-21 20:29:00,
2013-04-21 15:30:00,45.5,31.2,30.54,NE,39,8.0,12.0,57,0.00,,---,0.00,VWS V14.01,2013-04-21 20:30:00,
2013-04-21 15:34:00,44.7,31.3,30.54,ENE,63,2.0,15.0,59,0.00,,---,0.00,VWS V14.01,2013-04-21 20:34:00,
2013-04-21 15:39:00,45.2,31.7,30.53,NE,56,5.0,15.0,59,0.00,,---,0.00,VWS V14.01,2013-04-21 20:39:00,
2013-04-21 15:44:00,45.5,32.4,30.53,NNE,32,2.0,15.0,60,0.00,,---,0.00,VWS V14.01,2013-04-21 20:44:00,
2013-04-21 15:49:00,45.5,31.6,30.53,ENE,72,5.0,15.0,58,0.00,,---,0.00,VWS V14.01,2013-04-21 20:49:00,
2013-04-21 15:54:00,45.4,31.9,30.53,NNE,28,7.0,15.0,59,0.00,,---,0.00,VWS V14.01,2013-04-21 20:54:00,
2013-04-21 15:59:00,45.1,31.2,30.53,East,94,6.0,11.0,58,0.00,,---,0.00,VWS V14.01,2013-04-21 20:59:00,
2013-04-21 16:00:00,45.3,31.4,30.53,NNE,30,11.0,15.0,58,0.00,,---,0.00,VWS V14.01,2013-04-21 21:00:00,
2013-04-21 16:04:00,45.2,32.2,30.53,ENE,63,3.0,11.0,60,0.00,,---,0.00,VWS V14.01,2013-04-21 21:04:00,
2013-04-21 16:09:00,45.5,32.0,30.53,ENE,64,3.0,11.0,59,0.00,,---,0.00,VWS V14.01,2013-04-21 21:09:00,
2013-04-21 16:14:00,45.2,31.7,30.53,East,99,3.0,11.0,59,0.00,,---,0.00,VWS V14.01,2013-04-21 21:14:00,
2013-04-21 16:19:00,45.0,31.5,30.53,ENE,71,4.0,11.0,59,0.00,,---,0.00,VWS V14.01,2013-04-21 21:19:00,
2013-04-21 16:24:00,45.1,32.1,30.53,ENE,73,5.0,11.0,60,0.00,,---,0.00,VWS V14.01,2013-04-21 21:24:00,
2013-04-21 16:29:00,45.5,31.6,30.53,ESE,102,2.0,4.0,58,0.00,,---,0.00,VWS V14.01,2013-04-21 21:29:00,
2013-04-21 16:30:00,45.5,31.6,30.53,East,97,3.0,11.0,58,0.00,,---,0.00,VWS V14.01,2013-04-21 21:30:00,
2013-04-21 16:34:00,45.9,32.4,30.53,SE,132,2.0,9.0,59,0.00,,---,0.00,VWS V14.01,2013-04-21 21:34:00,
2013-04-21 16:39:00,45.6,31.7,30.53,East,96,4.0,9.0,58,0.00,,---,0.00,VWS V14.01,2013-04-21 21:39:00,
2013-04-21 16:44:00,45.6,31.7,30.53,East,79,4.0,9.0,58,0.00,,---,0.00,VWS V14.01,2013-04-21 21:44:00,
2013-04-21 16:49:00,45.2,31.3,30.53,East,94,2.0,9.0,58,0.00,,---,0.00,VWS V14.01,2013-04-21 21:49:00,
2013-04-21 16:54:00,44.9,31.0,30.52,ESE,118,6.0,11.0,58,0.00,,---,0.00,VWS V14.01,2013-04-21 21:54:00,
2013-04-21 16:59:00,45.0,31.1,30.52,ENE,73,3.0,4.0,58,0.00,,---,0.00,VWS V14.01,2013-04-21 21:59:00,
2013-04-21 17:00:00,45.0,31.5,30.52,East,101,3.0,11.0,59,0.00,,---,0.00,VWS V14.01,2013-04-21 22:00:00,
2013-04-21 17:04:00,45.1,31.2,30.53,ESE,115,7.0,8.0,58,0.00,,---,0.00,VWS V14.01,2013-04-21 22:04:00,
2013-04-21 17:09:00,44.8,30.5,30.52,NNE,25,2.0,9.0,57,0.00,,---,0.00,VWS V14.01,2013-04-21 22:09:00,
2013-04-21 17:14:00,44.9,30.6,30.52,SE,129,3.0,9.0,57,0.00,,---,0.00,VWS V14.01,2013-04-21 22:14:00,
2013-04-21 17:19:00,45.1,30.8,30.52,SE,133,1.0,9.0,57,0.00,,---,0.00,VWS V14.01,2013-04-21 22:19:00,
2013-04-21 17:24:00,45.2,30.5,30.52,SE,141,5.0,9.0,56,0.00,,---,0.00,VWS V14.01,2013-04-21 22:24:00,
2013-04-21 17:29:00,45.2,30.5,30.52,East,89,3.0,4.0,56,0.00,,---,0.00,VWS V14.01,2013-04-21 22:29:00,
2013-04-21 17:30:00,45.2,30.9,30.52,East,89,2.0,9.0,57,0.00,,---,0.00,VWS V14.01,2013-04-21 22:30:00,
2013-04-21 17:34:00,44.9,30.2,30.52,ENE,61,7.0,9.0,56,0.00,,---,0.00,VWS V14.01,2013-04-21 22:34:00,
2013-04-21 17:39:00,44.6,30.3,30.52,ENE,68,4.0,11.0,57,0.00,,---,0.00,VWS V14.01,2013-04-21 22:39:00,
2013-04-21 17:44:00,44.8,29.6,30.52,NE,49,5.0,13.0,55,0.00,,---,0.00,VWS V14.01,2013-04-21 22:44:00,
2013-04-21 17:49:00,44.3,29.2,30.52,East,85,5.0,13.0,55,0.00,,---,0.00,VWS V14.01,2013-04-21 22:49:00,
2013-04-21 17:54:00,44.0,28.9,30.52,SE,130,3.0,13.0,55,0.00,,---,0.00,VWS V14.01,2013-04-21 22:54:00,
2013-04-21 17:59:00,43.7,29.0,30.52,ENE,63,5.0,6.0,56,0.00,,---,0.00,VWS V14.01,2013-04-21 22:59:00,
2013-04-21 18:00:00,43.8,29.1,30.52,NE,54,6.0,13.0,56,0.00,,---,0.00,VWS V14.01,2013-04-21 23:00:00,
2013-04-21 18:04:00,43.5,28.9,30.52,NE,49,2.0,6.0,56,0.00,,---,0.00,VWS V14.01,2013-04-21 23:04:00,
2013-04-21 18:09:00,43.4,29.2,30.52,ENE,63,3.0,8.0,57,0.00,,---,0.00,VWS V14.01,2013-04-21 23:09:00,
2013-04-21 18:14:00,43.3,29.1,30.52,ESE,120,3.0,8.0,57,0.00,,---,0.00,VWS V14.01,2013-04-21 23:14:00,
2013-04-21 18:19:00,43.2,29.0,30.51,ESE,114,7.0,9.0,57,0.00,,---,0.00,VWS V14.01,2013-04-21 23:19:00,
2013-04-21 18:24:00,43.0,28.8,30.52,East,99,5.0,9.0,57,0.00,,---,0.00,VWS V14.01,2013-04-21 23:24:00,
2013-04-21 18:29:00,42.7,28.5,30.52,East,81,2.0,5.0,57,0.00,,---,0.00,VWS V14.01,2013-04-21 23:29:00,
2013-04-21 18:30:00,42.7,28.5,30.52,NE,50,4.0,9.0,57,0.00,,---,0.00,VWS V14.01,2013-04-21 23:30:00,
2013-04-21 18:34:00,42.5,28.8,30.51,NE,51,4.0,8.0,58,0.00,,---,0.00,VWS V14.01,2013-04-21 23:34:00,
2013-04-21 18:39:00,42.4,28.7,30.52,NE,46,2.0,8.0,58,0.00,,---,0.00,VWS V14.01,2013-04-21 23:39:00,
2013-04-21 18:44:00,42.1,28.8,30.52,ENE,75,3.0,8.0,59,0.00,,---,0.00,VWS V14.01,2013-04-21 23:44:00,
2013-04-21 18:49:00,41.7,28.4,30.52,NNE,20,5.0,8.0,59,0.00,,---,0.00,VWS V14.01,2013-04-21 23:49:00,
2013-04-21 18:54:00,41.5,29.1,30.52,East,82,2.0,8.0,61,0.00,,---,0.00,VWS V14.01,2013-04-21 23:54:00,
2013-04-21 18:59:00,41.2,28.8,30.52,East,79,4.0,9.0,61,0.00,,---,0.00,VWS V14.01,2013-04-21 23:59:00,
2013-04-21 19:00:00,41.3,28.9,30.52,East,81,1.0,8.0,61,0.00,,---,0.00,VWS V14.01,2013-04-22 00:00:00,
2013-04-21 19:04:00,40.8,28.8,30.52,ENE,77,2.0,9.0,62,0.00,,---,0.00,VWS V14.01,2013-04-22 00:04:00,
2013-04-21 19:09:00,40.5,29.3,30.52,NE,34,1.0,9.0,64,0.00,,---,0.00,VWS V14.01,2013-04-22 00:09:00,
2013-04-21 19:14:00,40.1,29.3,30.52,East,97,1.0,9.0,65,0.00,,---,0.00,VWS V14.01,2013-04-22 00:14:00,
2013-04-21 19:19:00,39.8,29.0,30.52,East,88,0.0,9.0,65,0.00,,---,0.00,VWS V14.01,2013-04-22 00:19:00,
2013-04-21 19:24:00,39.5,29.1,30.52,East,87,0.0,9.0,66,0.00,,---,0.00,VWS V14.01,2013-04-22 00:24:00,
2013-04-21 19:29:00,39.2,29.2,30.52,East,88,0.0,1.0,67,0.00,,---,0.00,VWS V14.01,2013-04-22 00:29:00,
2013-04-21 19:30:00,39.3,29.3,30.52,East,88,0.0,9.0,67,0.00,,---,0.00,VWS V14.01,2013-04-22 00:30:00,
2013-04-21 19:34:00,38.9,29.2,30.52,ENE,58,1.0,8.0,68,0.00,,---,0.00,VWS V14.01,2013-04-22 00:34:00,
2013-04-21 19:39:00,38.7,29.8,30.52,NE,52,2.0,8.0,70,0.00,,---,0.00,VWS V14.01,2013-04-22 00:39:00,
2013-04-21 19:44:00,38.5,29.9,30.52,ENE,73,0.0,8.0,71,0.00,,---,0.00,VWS V14.01,2013-04-22 00:44:00,
2013-04-21 19:49:00,38.4,30.2,30.52,East,94,1.0,8.0,72,0.00,,---,0.00,VWS V14.01,2013-04-22 00:49:00,
2013-04-21 19:54:00,38.3,30.1,30.52,SE,138,0.0,8.0,72,0.00,,---,0.00,VWS V14.01,2013-04-22 00:54:00,
2013-04-21 19:59:00,38.1,30.2,30.52,East,79,3.0,3.0,73,0.00,,---,0.00,VWS V14.01,2013-04-22 00:59:00,
2013-04-21 20:00:00,38.1,30.2,30.52,ENE,70,1.0,8.0,73,0.00,,---,0.00,VWS V14.01,2013-04-22 01:00:00,
2013-04-21 20:04:00,37.9,30.0,30.52,East,92,3.0,7.0,73,0.00,,---,0.00,VWS V14.01,2013-04-22 01:04:00,
2013-04-21 20:09:00,37.9,30.0,30.52,NE,54,2.0,7.0,73,0.00,,---,0.00,VWS V14.01,2013-04-22 01:09:00,
2013-04-21 20:14:00,37.8,29.9,30.52,ENE,71,5.0,7.0,73,0.00,,---,0.00,VWS V14.01,2013-04-22 01:14:00,
2013-04-21 20:19:00,37.8,29.9,30.52,NNE,20,1.0,8.0,73,0.00,,---,0.00,VWS V14.01,2013-04-22 01:19:00,
2013-04-21 20:24:00,37.6,29.7,30.52,NE,55,3.0,8.0,73,0.00,,---,0.00,VWS V14.01,2013-04-22 01:24:00,
2013-04-21 20:29:00,37.6,29.7,30.52,ESE,122,3.0,3.0,73,0.00,,---,0.00,VWS V14.01,2013-04-22 01:29:00,
2013-04-21 20:30:00,37.6,29.7,30.52,East,88,1.0,8.0,73,0.00,,---,0.00,VWS V14.01,2013-04-22 01:30:00,
2013-04-21 20:34:00,37.5,30.0,30.52,East,91,2.0,6.0,74,0.00,,---,0.00,VWS V14.01,2013-04-22 01:34:00,
2013-04-21 20:39:00,37.5,30.0,30.52,ENE,75,2.0,7.0,74,0.00,,---,0.00,VWS V14.01,2013-04-22 01:39:00,
2013-04-21 20:44:00,37.4,29.9,30.52,ENE,64,2.0,7.0,74,0.00,,---,0.00,VWS V14.01,2013-04-22 01:44:00,
2013-04-21 20:49:00,37.3,30.1,30.52,ENE,74,1.0,7.0,75,0.00,,---,0.00,VWS V14.01,2013-04-22 01:49:00,
2013-04-21 20:54:00,37.2,30.0,30.52,ESE,120,4.0,7.0,75,0.00,,---,0.00,VWS V14.01,2013-04-22 01:54:00,
2013-04-21 20:59:00,37.0,30.1,30.52,ESE,103,0.0,3.0,76,0.00,,---,0.00,VWS V14.01,2013-04-22 01:59:00,
2013-04-21 21:00:00,37.1,29.9,30.52,East,91,2.0,7.0,75,0.00,,---,0.00,VWS V14.01,2013-04-22 02:00:00,
2013-04-21 21:04:00,37.0,30.1,30.52,ENE,71,2.0,5.0,76,0.00,,---,0.00,VWS V14.01,2013-04-22 02:04:00,
2013-04-21 21:09:00,36.9,30.0,30.52,ESE,107,1.0,5.0,76,0.00,,---,0.00,VWS V14.01,2013-04-22 02:09:00,
2013-04-21 21:14:00,36.6,30.1,30.52,ENE,64,0.0,5.0,77,0.00,,---,0.00,VWS V14.01,2013-04-22 02:14:00,
2013-04-21 21:19:00,36.5,30.0,30.52,SE,133,3.0,5.0,77,0.00,,---,0.00,VWS V14.01,2013-04-22 02:19:00,
2013-04-21 21:24:00,36.5,30.0,30.52,East,91,1.0,5.0,77,0.00,,---,0.00,VWS V14.01,2013-04-22 02:24:00,
2013-04-21 21:29:00,36.5,30.0,30.51,ENE,73,0.0,0.0,77,0.00,,---,0.00,VWS V14.01,2013-04-22 02:29:00,
2013-04-21 21:30:00,36.5,30.0,30.51,ENE,73,0.0,5.0,77,0.00,,---,0.00,VWS V14.01,2013-04-22 02:30:00,
2013-04-21 21:34:00,36.5,30.3,30.51,East,99,1.0,5.0,78,0.00,,---,0.00,VWS V14.01,2013-04-22 02:34:00,
2013-04-21 21:39:00,36.4,30.2,30.51,ESE,115,0.0,5.0,78,0.00,,---,0.00,VWS V14.01,2013-04-22 02:39:00,
2013-04-21 21:44:00,36.3,30.1,30.51,East,101,2.0,5.0,78,0.00,,---,0.00,VWS V14.01,2013-04-22 02:44:00,
2013-04-21 21:49:00,36.3,30.1,30.51,ENE,74,1.0,5.0,78,0.00,,---,0.00,VWS V14.01,2013-04-22 02:49:00,
2013-04-21 21:54:00,36.2,30.3,30.51,ESE,123,0.0,5.0,79,0.00,,---,0.00,VWS V14.01,2013-04-22 02:54:00,
2013-04-21 21:59:00,36.1,30.2,30.51,NE,46,1.0,1.0,79,0.00,,---,0.00,VWS V14.01,2013-04-22 02:59:00,
2013-04-21 22:00:00,36.1,30.2,30.51,East,81,0.0,5.0,79,0.00,,---,0.00,VWS V14.01,2013-04-22 03:00:00,
2013-04-21 22:04:00,36.1,30.2,30.51,ENE,65,1.0,3.0,79,0.00,,---,0.00,VWS V14.01,2013-04-22 03:04:00,
2013-04-21 22:09:00,36.0,30.1,30.51,East,99,0.0,3.0,79,0.00,,---,0.00,VWS V14.01,2013-04-22 03:09:00,
2013-04-21 22:14:00,35.7,30.1,30.51,East,89,0.0,3.0,80,0.00,,---,0.00,VWS V14.01,2013-04-22 03:14:00,
2013-04-21 22:19:00,35.6,30.0,30.50,ENE,73,1.0,3.0,80,0.00,,---,0.00,VWS V14.01,2013-04-22 03:19:00,
2013-04-21 22:24:00,35.6,30.0,30.50,East,83,0.0,3.0,80,0.00,,---,0.00,VWS V14.01,2013-04-22 03:24:00,
2013-04-21 22:29:00,35.5,30.0,30.50,NNE,18,1.0,3.0,80,0.00,,---,0.00,VWS V14.01,2013-04-22 03:29:00,
2013-04-21 22:30:00,35.5,30.0,30.50,East,100,0.0,3.0,80,0.00,,---,0.00,VWS V14.01,2013-04-22 03:30:00,
2013-04-21 22:34:00,35.5,30.3,30.50,East,91,0.0,3.0,81,0.00,,---,0.00,VWS V14.01,2013-04-22 03:34:00,
2013-04-21 22:39:00,35.4,30.2,30.50,SE,134,1.0,3.0,81,0.00,,---,0.00,VWS V14.01,2013-04-22 03:39:00,
2013-04-21 22:44:00,35.5,30.3,30.50,NE,53,1.0,4.0,81,0.00,,---,0.00,VWS V14.01,2013-04-22 03:44:00,
2013-04-21 22:49:00,35.6,30.4,30.50,ESE,120,0.0,4.0,81,0.00,,---,0.00,VWS V14.01,2013-04-22 03:49:00,
2013-04-21 22:54:00,35.5,30.3,30.49,East,79,1.0,4.0,81,0.00,,---,0.00,VWS V14.01,2013-04-22 03:54:00,
2013-04-21 22:59:00,35.4,30.2,30.49,East,95,0.0,0.0,81,0.00,,---,0.00,VWS V14.01,2013-04-22 03:59:00,
2013-04-21 23:00:00,35.4,30.2,30.49,East,95,0.0,5.0,81,0.00,,---,0.00,VWS V14.01,2013-04-22 04:00:00,
2013-04-21 23:01:00,35.3,30.1,30.49,East,95,0.0,0.0,81,0.00,,---,0.00,VWS V14.01,2013-04-22 04:01:00,
2013-04-21 23:06:00,35.1,30.2,30.49,East,94,0.0,1.0,82,0.00,,---,0.00,VWS V14.01,2013-04-22 04:06:00,
2013-04-21 23:11:00,35.1,30.2,30.49,NE,50,1.0,2.0,82,0.00,,---,0.00,VWS V14.01,2013-04-22 04:11:00,
2013-04-21 23:16:00,35.3,30.4,30.49,ENE,75,0.0,3.0,82,0.00,,---,0.00,VWS V14.01,2013-04-22 04:16:00,
2013-04-21 23:21:00,35.2,30.3,30.49,East,94,0.0,3.0,82,0.00,,---,0.00,VWS V14.01,2013-04-22 04:21:00,
2013-04-21 23:26:00,35.1,30.2,30.49,East,95,0.0,3.0,82,0.00,,---,0.00,VWS V14.01,2013-04-22 04:26:00,
2013-04-21 23:30:00,35.1,30.2,30.48,East,94,0.0,3.0,82,0.00,,---,0.00,VWS V14.01,2013-04-22 04:30:00,
2013-04-21 23:31:00,35.1,30.5,30.48,East,95,0.0,1.0,83,0.00,,---,0.00,VWS V14.01,2013-04-22 04:31:00,
2013-04-21 23:36:00,35.0,30.4,30.48,East,94,0.0,1.0,83,0.00,,---,0.00,VWS V14.01,2013-04-22 04:36:00,
2013-04-21 23:41:00,34.9,30.3,30.48,East,95,0.0,1.0,83,0.00,,---,0.00,VWS V14.01,2013-04-22 04:41:00,
2013-04-21 23:46:00,34.8,30.2,30.48,East,95,0.0,1.0,83,0.00,,---,0.00,VWS V14.01,2013-04-22 04:46:00,
2013-04-21 23:51:00,34.6,30.3,30.48,East,94,0.0,1.0,84,0.00,,---,0.00,VWS V14.01,2013-04-22 04:51:00,
2013-04-21 23:56:00,34.4,30.1,30.47,East,94,0.0,1.0,84,0.00,,---,0.00,VWS V14.01,2013-04-22 04:56:00,